Time;durP1;ratioP1;P1;durP2;ratioP2;P2;SDS_P1;SDS_P2;PMS_P1;PMS_P2;Temp;Humidity;BMP_temperature;BMP_pressure;BME280_temperature;BME280_humidity;BME280_pressure;Samples;Min_cycle;Max_cycle;Signal;HPM_P1;HPM_P2
2022/05/08 00:00:11;;;;;;;5.72;4.15;;;;;;;22.60;36.88;99981.69;345616;28;1914;-68
2022/05/08 00:00:23;;;;;;;5.07;4.20;;;;;;;22.60;36.83;99981.69;346637;28;1139;-68
2022/05/08 00:00:35;;;;;;;4.85;4.18;;;;;;;22.61;36.68;99984.19;345526;28;2727;-68
2022/05/08 00:00:47;;;;;;;5.63;4.10;;;;;;;22.63;36.52;99986.72;345309;28;1062;-68
2022/05/08 00:01:00;;;;;;;6.45;4.32;;;;;;;22.62;36.46;99985.88;345305;28;1894;-68
2022/05/08 00:01:12;;;;;;;6.40;4.50;;;;;;;22.61;36.66;99986.00;346019;28;1474;-68
2022/05/08 00:01:24;;;;;;;6.60;4.30;;;;;;;22.60;36.74;99982.50;346570;28;1281;-68
2022/05/08 00:01:37;;;;;;;6.35;4.20;;;;;;;22.61;36.84;99980.69;346747;28;1134;-69
2022/05/08 00:01:49;;;;;;;5.53;4.07;;;;;;;22.60;36.58;99989.63;346163;28;1054;-68
2022/05/08 00:02:01;;;;;;;5.38;4.03;;;;;;;22.58;36.63;99984.44;345569;28;1780;-69
2022/05/08 00:02:14;;;;;;;6.03;4.35;;;;;;;22.51;36.82;99988.50;345719;28;1828;-68
2022/05/08 00:02:27;;;;;;;7.32;4.38;;;;;;;22.50;36.78;99986.84;347469;28;1297;-68
2022/05/08 00:02:40;;;;;;;6.35;4.10;;;;;;;22.45;36.80;99983.69;346996;28;1232;-68
2022/05/08 00:02:54;;;;;;;5.78;3.95;;;;;;;22.43;36.74;99980.31;346690;28;1534;-68
2022/05/08 00:03:07;;;;;;;6.47;4.05;;;;;;;22.45;36.35;99983.69;346285;28;1730;-68
2022/05/08 00:03:19;;;;;;;5.63;4.00;;;;;;;22.43;36.76;99986.44;346366;28;1332;-68
2022/05/08 00:03:31;;;;;;;5.28;3.95;;;;;;;22.40;37.04;99992.00;346598;28;1310;-68
2022/05/08 00:03:43;;;;;;;5.47;3.85;;;;;;;22.36;36.96;99985.25;346503;28;1069;-67
2022/05/08 00:03:54;;;;;;;5.68;4.03;;;;;;;22.38;36.67;99990.44;346241;28;1840;-67
2022/05/08 00:04:07;;;;;;;5.22;4.10;;;;;;;22.38;36.98;99985.13;346029;28;1309;-68
2022/05/08 00:04:19;;;;;;;4.65;4.00;;;;;;;22.36;36.93;99989.72;347829;28;1058;-68
2022/05/08 00:04:31;;;;;;;4.72;4.20;;;;;;;22.30;37.10;99991.84;346192;28;1237;-68
2022/05/08 00:04:43;;;;;;;4.68;4.00;;;;;;;22.26;37.13;99990.41;346599;28;1069;-68
2022/05/08 00:04:55;;;;;;;6.38;4.10;;;;;;;22.27;37.07;99986.78;345715;28;1751;-68
2022/05/08 00:05:08;;;;;;;6.32;4.10;;;;;;;22.25;37.31;99983.41;346573;28;1428;-68
2022/05/08 00:05:20;;;;;;;4.85;4.13;;;;;;;22.28;37.00;99985.00;345376;28;1018;-68
2022/05/08 00:05:32;;;;;;;5.80;4.32;;;;;;;22.29;36.85;99990.16;346117;28;1395;-68
2022/05/08 00:05:48;;;;;;;6.78;4.10;;;;;;;22.29;37.12;99990.16;346487;28;1105;-68
2022/05/08 00:06:06;;;;;;;6.57;4.00;;;;;;;22.26;36.99;99990.41;345500;28;1840;-68
2022/05/08 00:06:18;;;;;;;6.57;4.18;;;;;;;22.28;36.77;99988.47;347118;28;1070;-68
2022/05/08 00:06:30;;;;;;;7.00;4.40;;;;;;;22.25;36.98;99983.41;346950;28;1295;-68
2022/05/08 00:06:42;;;;;;;7.57;4.60;;;;;;;22.27;37.25;99992.06;346739;28;1597;-68
2022/05/08 00:06:54;;;;;;;9.20;4.57;;;;;;;22.27;37.44;99992.06;346126;28;1653;-68
2022/05/08 00:07:06;;;;;;;7.68;4.35;;;;;;;22.28;37.09;99988.47;346045;28;1796;-68
2022/05/08 00:07:19;;;;;;;7.88;4.50;;;;;;;22.30;37.11;99983.91;347473;28;1066;-68
2022/05/08 00:07:31;;;;;;;6.85;4.65;;;;;;;22.31;37.57;99990.88;346597;28;1265;-68
2022/05/08 00:07:43;;;;;;;6.35;4.57;;;;;;;22.31;37.28;99982.94;346421;28;1092;-68
2022/05/08 00:07:55;;;;;;;7.82;4.68;;;;;;;22.33;37.12;99983.69;345778;28;1684;-68
2022/05/08 00:08:07;;;;;;;6.75;4.50;;;;;;;22.36;36.95;99984.41;345659;28;1477;-68
2022/05/08 00:08:19;;;;;;;4.72;4.22;;;;;;;22.38;36.67;99985.97;346238;28;1176;-68
2022/05/08 00:08:31;;;;;;;4.55;4.00;;;;;;;22.39;37.32;99989.47;346114;28;1304;-67
2022/05/08 00:08:43;;;;;;;5.78;4.05;;;;;;;22.42;37.55;99989.22;346715;28;1089;-68
2022/05/08 00:08:55;;;;;;;6.03;4.10;;;;;;;22.39;37.94;99986.81;346069;28;1717;-68
2022/05/08 00:09:07;;;;;;;5.65;4.30;;;;;;;22.39;37.24;99986.81;345380;28;1836;-68
2022/05/08 00:09:19;;;;;;;5.28;4.43;;;;;;;22.41;38.02;99984.88;346376;28;1078;-68
2022/05/08 00:09:31;;;;;;;6.45;4.60;;;;;;;22.44;36.99;99984.66;346248;28;1727;-67
2022/05/08 00:09:44;;;;;;;6.20;4.65;;;;;;;22.45;37.02;99989.81;346202;28;1113;-68
2022/05/08 00:09:56;;;;;;;5.70;4.35;;;;;;;22.49;37.26;99985.13;345938;28;1754;-68
2022/05/08 00:10:09;;;;;;;5.55;4.40;;;;;;;22.48;36.96;99988.75;345950;28;1634;-68
2022/05/08 00:10:21;;;;;;;6.45;4.60;;;;;;;22.48;36.75;99983.47;344966;28;1575;-68
2022/05/08 00:10:33;;;;;;;6.03;4.63;;;;;;;22.47;37.21;99987.91;345983;28;1249;-68
2022/05/08 00:10:45;;;;;;;5.22;4.45;;;;;;;22.46;37.26;99985.38;346208;28;1315;-68
2022/05/08 00:10:57;;;;;;;5.18;4.30;;;;;;;22.48;36.93;99988.75;345428;28;1635;-68
2022/05/08 00:11:09;;;;;;;5.45;4.20;;;;;;;22.49;37.26;99987.78;346188;28;1733;-68
2022/05/08 00:11:21;;;;;;;5.90;4.45;;;;;;;22.50;37.31;99986.84;344901;28;1245;-68
2022/05/08 00:11:33;;;;;;;6.70;4.60;;;;;;;22.52;36.99;99996.34;345874;28;1318;-68
2022/05/08 00:11:45;;;;;;;6.88;4.60;;;;;;;22.53;36.85;99982.13;346119;28;1051;-68
2022/05/08 00:11:57;;;;;;;7.15;4.15;;;;;;;22.52;37.15;99988.41;345388;28;1771;-67
2022/05/08 00:12:11;;;;;;;7.18;3.85;;;;;;;22.53;36.79;99982.13;346238;28;1759;-67
2022/05/08 00:12:23;;;;;;;6.13;3.90;;;;;;;22.51;36.82;99980.56;346026;28;1043;-68
2022/05/08 00:12:36;;;;;;;5.18;4.20;;;;;;;22.52;37.09;99976.97;346050;28;1219;-68
2022/05/08 00:12:48;;;;;;;5.45;4.10;;;;;;;22.54;36.94;99983.00;346319;28;1162;-68
2022/05/08 00:13:00;;;;;;;5.88;4.10;;;;;;;22.56;36.60;99983.72;345096;28;1814;-68
2022/05/08 00:13:12;;;;;;;7.03;4.28;;;;;;;22.55;37.28;99984.66;345815;28;1856;-68
2022/05/08 00:13:24;;;;;;;7.88;4.43;;;;;;;22.54;37.27;99978.53;347691;28;1288;-68
2022/05/08 00:13:36;;;;;;;7.63;4.57;;;;;;;22.56;37.04;99981.06;344952;28;1082;-68
2022/05/08 00:13:48;;;;;;;6.20;4.38;;;;;;;22.56;36.80;99983.72;344594;28;1094;-68
2022/05/08 00:14:00;;;;;;;7.40;4.32;;;;;;;22.57;36.54;99981.91;344428;28;1970;-67
2022/05/08 00:14:12;;;;;;;7.05;4.32;;;;;;;22.57;36.71;99988.03;345635;28;1887;-68
2022/05/08 00:14:24;;;;;;;5.03;4.22;;;;;;;22.55;36.89;99982.00;346269;28;1264;-68
2022/05/08 00:14:37;;;;;;;6.03;4.30;;;;;;;22.53;37.35;99991.88;346252;28;1234;-67
2022/05/08 00:14:49;;;;;;;6.07;4.38;;;;;;;22.53;37.25;99981.28;346576;28;1025;-68
2022/05/08 00:15:02;;;;;;;4.72;4.20;;;;;;;22.52;36.80;99979.63;345760;28;1827;-68
2022/05/08 00:15:14;;;;;;;4.40;4.00;;;;;;;22.53;37.29;99986.59;346239;28;1828;-68
2022/05/08 00:15:26;;;;;;;5.05;4.03;;;;;;;22.51;37.11;99985.84;345890;28;1229;-68
2022/05/08 00:15:38;;;;;;;5.55;4.07;;;;;;;22.53;37.01;99989.22;346569;28;1963;-68
2022/05/08 00:15:50;;;;;;;6.25;4.00;;;;;;;22.53;36.96;99976.81;344950;28;1153;-68
2022/05/08 00:16:03;;;;;;;5.22;3.70;;;;;;;22.55;37.13;99984.66;345112;28;1978;-68
2022/05/08 00:16:15;;;;;;;5.35;3.85;;;;;;;22.54;36.98;99985.63;346714;28;1743;-68
2022/05/08 00:16:28;;;;;;;5.93;4.15;;;;;;;22.53;37.23;99981.28;346553;28;1107;-68
2022/05/08 00:16:40;;;;;;;5.93;4.00;;;;;;;22.54;37.31;99977.69;345027;28;1094;-68
2022/05/08 00:16:52;;;;;;;5.28;4.03;;;;;;;22.51;37.02;99985.84;345214;28;1164;-68
2022/05/08 00:17:05;;;;;;;5.57;4.28;;;;;;;22.52;36.74;99979.63;345681;28;1359;-68
2022/05/08 00:17:18;;;;;;;6.22;4.75;;;;;;;22.53;36.79;99981.28;345732;28;1899;-67
2022/05/08 00:17:34;;;;;;;5.93;4.65;;;;;;;22.51;37.08;99980.56;345444;28;1420;-68
2022/05/08 00:17:49;;;;;;;5.60;4.45;;;;;;;22.48;36.84;99986.13;345668;28;1551;-67
2022/05/08 00:18:02;;;;;;;6.95;4.57;;;;;;;22.45;36.54;99983.69;344689;28;2145;-68
2022/05/08 00:18:14;;;;;;;8.23;4.55;;;;;;;22.48;36.58;99983.47;346213;28;1145;-68
2022/05/08 00:18:26;;;;;;;7.07;4.25;;;;;;;22.51;36.74;99981.41;346295;28;1668;-69
2022/05/08 00:18:38;;;;;;;5.15;4.25;;;;;;;22.52;36.54;99988.41;345309;28;2019;-69
2022/05/08 00:18:50;;;;;;;5.43;4.50;;;;;;;22.51;36.75;99978.75;346115;28;1710;-69
2022/05/08 00:19:02;;;;;;;5.90;4.60;;;;;;;22.53;36.37;99983.94;345155;28;1716;-70
2022/05/08 00:19:16;;;;;;;5.90;4.45;;;;;;;22.50;36.53;99977.06;346001;28;1700;-70
2022/05/08 00:19:28;;;;;;;6.00;4.63;;;;;;;22.52;37.15;99987.56;346024;28;1218;-70
2022/05/08 00:19:43;;;;;;;8.70;4.75;;;;;;;22.52;36.58;99972.50;346502;28;1503;-71
2022/05/08 00:19:56;;;;;;;8.15;4.72;;;;;;;22.53;36.85;99976.81;346458;28;1074;-70
2022/05/08 00:20:09;;;;;;;6.30;4.63;;;;;;;22.50;36.96;99971.78;346104;28;1098;-69
2022/05/08 00:20:21;;;;;;;7.75;4.63;;;;;;;22.45;36.99;99979.22;345279;28;1964;-71
2022/05/08 00:20:33;;;;;;;6.68;4.57;;;;;;;22.45;37.14;99981.03;346164;28;1250;-70
2022/05/08 00:20:45;;;;;;;6.50;4.55;;;;;;;22.44;36.66;99979.38;344835;28;1026;-70
2022/05/08 00:20:57;;;;;;;6.57;4.57;;;;;;;22.45;36.91;99978.38;344804;28;1207;-70
2022/05/08 00:21:09;;;;;;;7.00;4.53;;;;;;;22.45;36.85;99981.88;345829;28;1440;-69
2022/05/08 00:21:21;;;;;;;6.10;4.47;;;;;;;22.48;36.71;99967.56;345645;28;2962;-70
2022/05/08 00:21:33;;;;;;;5.95;4.40;;;;;;;22.45;36.58;99979.22;346469;28;1351;-71
2022/05/08 00:21:45;;;;;;;5.30;4.22;;;;;;;22.43;36.76;99981.16;346105;28;1514;-70
2022/05/08 00:21:57;;;;;;;5.07;4.10;;;;;;;22.38;36.86;99983.31;345208;28;3305;-70
2022/05/08 00:22:29;;;;;;;6.35;4.50;;;;;;;22.28;36.67;99988.47;345830;28;1736;-70
2022/05/08 00:22:45;;;;;;;6.35;4.40;;;;;;;22.24;36.98;99987.03;346080;28;1677;-69
2022/05/08 00:22:58;;;;;;;5.40;4.15;;;;;;;22.25;36.80;99977.25;346208;28;1242;-69
2022/05/08 00:23:10;;;;;;;6.00;4.55;;;;;;;22.26;36.71;99984.25;346197;28;1152;-69
2022/05/08 00:23:22;;;;;;;5.20;4.32;;;;;;;22.25;36.91;99983.41;344945;28;1178;-69
2022/05/08 00:23:34;;;;;;;6.18;4.57;;;;;;;22.27;36.96;99984.13;346138;28;1301;-69
2022/05/08 00:23:46;;;;;;;5.80;4.32;;;;;;;22.25;36.75;99983.41;345967;28;1074;-69
2022/05/08 00:23:58;;;;;;;5.72;4.60;;;;;;;22.23;36.75;99980.00;346410;28;1070;-69
2022/05/08 00:24:13;;;;;;;4.95;4.28;;;;;;;22.20;37.30;99980.25;345907;28;965;-69
2022/05/08 00:24:25;;;;;;;5.43;3.97;;;;;;;22.19;37.02;99989.13;346270;28;1346;-70
2022/05/08 00:24:37;;;;;;;6.22;4.03;;;;;;;22.16;37.00;99978.78;346082;28;1277;-69
2022/05/08 00:24:49;;;;;;;6.05;4.32;;;;;;;22.15;36.82;99985.03;346053;28;1067;-70
2022/05/08 00:25:03;;;;;;;5.57;4.40;;;;;;;22.18;37.13;99987.47;345259;28;1840;-70
2022/05/08 00:25:15;;;;;;;5.45;4.40;;;;;;;22.16;37.24;99989.38;345948;28;1937;-71
2022/05/08 00:25:27;;;;;;;5.38;4.28;;;;;;;22.16;37.22;99989.38;346122;28;1469;-71
2022/05/08 00:25:39;;;;;;;5.65;4.13;;;;;;;22.14;37.23;99991.28;346200;28;1062;-69
2022/05/08 00:25:51;;;;;;;5.78;4.15;;;;;;;22.12;37.20;99990.56;346176;28;1007;-69
2022/05/08 00:26:07;;;;;;;5.28;4.15;;;;;;;22.11;36.95;99994.16;345530;28;3172;-69
2022/05/08 00:26:19;;;;;;;5.35;4.22;;;;;;;22.10;37.22;99989.84;345199;28;2079;-70
2022/05/08 00:26:31;;;;;;;5.07;4.22;;;;;;;22.10;37.03;99989.84;346225;28;1268;-70
2022/05/08 00:26:43;;;;;;;5.80;4.20;;;;;;;22.07;37.26;99990.06;346291;28;1030;-70
2022/05/08 00:26:55;;;;;;;5.47;4.00;;;;;;;22.05;36.98;99986.69;346222;28;1710;-71
2022/05/08 00:27:07;;;;;;;4.45;3.83;;;;;;;22.04;37.43;99993.78;346129;28;1789;-70
2022/05/08 00:27:19;;;;;;;4.82;3.90;;;;;;;22.01;37.22;99987.88;344842;28;2874;-70
2022/05/08 00:27:31;;;;;;;5.78;4.22;;;;;;;22.00;37.27;99988.84;346012;28;1278;-70
2022/05/08 00:27:43;;;;;;;6.38;4.45;;;;;;;21.99;37.28;99987.16;345405;28;1836;-70
2022/05/08 00:27:55;;;;;;;6.13;4.35;;;;;;;21.97;37.01;99989.06;346498;28;1181;-69
2022/05/08 00:28:07;;;;;;;5.75;4.30;;;;;;;21.96;37.35;99992.69;346457;28;1042;-71
2022/05/08 00:28:19;;;;;;;5.78;4.40;;;;;;;21.95;37.24;99997.09;346280;28;1184;-70
2022/05/08 00:28:31;;;;;;;5.75;4.13;;;;;;;21.96;37.47;99992.69;346231;28;1258;-69
2022/05/08 00:28:43;;;;;;;5.57;4.10;;;;;;;21.96;37.51;99992.69;346373;28;1234;-69
2022/05/08 00:28:55;;;;;;;4.55;4.00;;;;;;;21.94;37.35;99996.28;346415;28;1078;-69
2022/05/08 00:29:10;;;;;;;5.13;3.88;;;;;;;21.99;37.50;99992.44;345081;28;1126;-69
2022/05/08 00:29:23;;;;;;;5.30;4.10;;;;;;;21.97;37.19;99995.19;345059;28;1210;-70
2022/05/08 00:29:35;;;;;;;5.70;4.20;;;;;;;21.98;37.52;99990.75;346484;28;1196;-71
2022/05/08 00:29:47;;;;;;;5.55;4.10;;;;;;;22.00;37.36;99988.84;346694;28;783;-70
2022/05/08 00:29:59;;;;;;;6.00;4.25;;;;;;;22.01;37.61;99995.81;345121;28;2148;-70
2022/05/08 00:30:12;;;;;;;8.38;4.57;;;;;;;22.03;37.89;99993.91;345786;28;1568;-69
2022/05/08 00:30:24;;;;;;;9.45;4.55;;;;;;;22.03;37.99;99988.59;346493;28;1219;-71
2022/05/08 00:30:36;;;;;;;7.38;4.32;;;;;;;22.02;37.80;99989.56;346259;28;1690;-69
2022/05/08 00:30:48;;;;;;;5.50;4.40;;;;;;;22.03;37.47;99989.44;345145;28;1066;-69
2022/05/08 00:31:00;;;;;;;7.75;4.60;;;;;;;22.06;37.41;99988.38;345334;28;1242;-69
2022/05/08 00:31:12;;;;;;;8.00;4.67;;;;;;;22.07;37.90;99995.34;346365;28;1089;-69
2022/05/08 00:31:24;;;;;;;6.85;4.72;;;;;;;22.06;37.69;99988.38;346280;28;1219;-70
2022/05/08 00:31:37;;;;;;;7.65;4.70;;;;;;;22.08;37.74;99986.47;345116;28;1015;-69
2022/05/08 00:31:49;;;;;;;7.93;4.70;;;;;;;22.09;37.95;99996.09;344900;28;1050;-69
2022/05/08 00:32:01;;;;;;;6.95;4.88;;;;;;;22.09;38.12;99989.00;345456;28;1286;-70
2022/05/08 00:32:13;;;;;;;6.30;4.82;;;;;;;22.12;37.70;99990.56;346002;28;1019;-70
2022/05/08 00:32:25;;;;;;;6.45;4.72;;;;;;;22.14;37.47;99988.66;346128;28;1365;-70
2022/05/08 00:32:37;;;;;;;6.38;4.78;;;;;;;22.17;37.51;99984.91;345903;28;1227;-71
2022/05/08 00:32:49;;;;;;;6.47;4.82;;;;;;;22.19;37.46;99980.34;346236;28;1194;-70
2022/05/08 00:33:01;;;;;;;7.05;4.80;;;;;;;22.19;37.60;99983.00;346210;28;1193;-70
2022/05/08 00:33:14;;;;;;;7.07;4.78;;;;;;;22.18;37.72;99987.47;345991;28;1169;-70
2022/05/08 00:33:26;;;;;;;7.28;4.93;;;;;;;22.19;37.54;99983.00;346059;28;1519;-69
2022/05/08 00:33:39;;;;;;;7.47;5.10;;;;;;;22.17;37.38;99983.09;345230;28;2201;-71
2022/05/08 00:33:51;;;;;;;7.10;5.00;;;;;;;22.16;37.20;99985.91;346214;28;1087;-69
2022/05/08 00:34:03;;;;;;;5.78;4.75;;;;;;;22.15;36.84;99990.31;345539;28;1842;-70
2022/05/08 00:34:20;;;;;;;5.30;4.70;;;;;;;22.14;36.97;99986.00;346213;28;1212;-70
2022/05/08 00:34:32;;;;;;;5.20;4.63;;;;;;;22.14;37.99;99989.47;346333;28;1312;-69
2022/05/08 00:34:44;;;;;;;5.10;4.60;;;;;;;22.17;37.79;99980.47;346252;28;1190;-69
2022/05/08 00:34:57;;;;;;;6.03;4.50;;;;;;;22.20;37.36;99982.06;345856;28;1824;-70
2022/05/08 00:35:10;;;;;;;7.65;4.90;;;;;;;22.17;37.77;99991.03;346295;28;1898;-70
2022/05/08 00:35:22;;;;;;;7.80;5.05;;;;;;;22.18;37.27;99982.16;345351;28;1196;-69
2022/05/08 00:35:34;;;;;;;6.50;5.05;;;;;;;22.20;37.45;99977.59;346184;28;1545;-70
2022/05/08 00:35:46;;;;;;;5.65;5.05;;;;;;;22.19;37.50;99989.13;346535;28;1322;-69
2022/05/08 00:35:58;;;;;;;9.27;5.15;;;;;;;22.18;37.30;99982.16;345718;28;1791;-70
2022/05/08 00:36:10;;;;;;;11.05;4.93;;;;;;;22.20;37.20;99985.53;345267;28;2284;-69
2022/05/08 00:36:23;;;;;;;7.28;4.55;;;;;;;22.21;37.40;99983.72;346309;28;1113;-69
2022/05/08 00:36:35;;;;;;;6.15;4.32;;;;;;;22.21;37.39;99981.91;346570;28;1116;-69
2022/05/08 00:36:47;;;;;;;5.22;4.30;;;;;;;22.22;37.24;99983.63;346302;28;1235;-69
2022/05/08 00:36:59;;;;;;;5.40;4.20;;;;;;;22.23;37.32;99985.28;345832;28;1829;-69
2022/05/08 00:37:11;;;;;;;5.10;4.15;;;;;;;22.24;37.03;99984.38;345999;28;1748;-70
2022/05/08 00:37:23;;;;;;;4.85;4.20;;;;;;;22.26;36.77;99985.09;345156;28;2214;-69
2022/05/08 00:37:34;;;;;;;5.57;4.30;;;;;;;22.24;37.20;99984.38;346134;28;1316;-69
2022/05/08 00:37:46;;;;;;;5.80;4.30;;;;;;;22.24;37.63;99980.88;346448;28;1006;-69
2022/05/08 00:37:58;;;;;;;6.53;4.55;;;;;;;22.22;37.30;99988.91;345530;28;1848;-70
2022/05/08 00:38:10;;;;;;;6.00;4.60;;;;;;;22.23;37.55;99989.75;345939;28;1718;-69
2022/05/08 00:38:22;;;;;;;5.20;4.70;;;;;;;22.21;37.75;99987.22;346175;28;1685;-69
2022/05/08 00:38:34;;;;;;;5.30;4.80;;;;;;;22.21;37.61;99984.56;346299;28;1596;-69
2022/05/08 00:38:47;;;;;;;5.93;5.05;;;;;;;22.19;37.58;99983.84;346440;28;1218;-69
2022/05/08 00:38:59;;;;;;;5.93;5.00;;;;;;;22.21;37.84;99981.06;345986;28;1510;-70
2022/05/08 00:39:12;;;;;;;5.88;4.82;;;;;;;22.23;37.81;99980.00;345554;28;1914;-70
2022/05/08 00:39:24;;;;;;;6.20;4.60;;;;;;;22.22;38.09;99983.63;346232;28;1234;-69
2022/05/08 00:39:36;;;;;;;6.22;4.70;;;;;;;22.23;37.88;99987.09;346453;28;1804;-69
2022/05/08 00:39:48;;;;;;;5.78;4.85;;;;;;;22.17;37.58;99991.03;347509;28;1066;-69
2022/05/08 00:40:00;;;;;;;5.65;4.68;;;;;;;22.20;37.62;99982.88;344758;28;1767;-69
2022/05/08 00:40:13;;;;;;;6.72;4.75;;;;;;;22.20;37.30;99980.25;345418;28;1685;-71
2022/05/08 00:40:25;;;;;;;7.93;4.78;;;;;;;22.23;37.33;99985.28;347317;28;1425;-69
2022/05/08 00:40:38;;;;;;;7.32;4.82;;;;;;;22.20;37.51;99976.75;346455;28;1277;-69
2022/05/08 00:40:50;;;;;;;6.00;4.68;;;;;;;22.19;37.47;99986.47;346992;28;1273;-69
2022/05/08 00:41:02;;;;;;;6.15;4.70;;;;;;;22.20;37.38;99980.25;344817;28;2244;-70
2022/05/08 00:41:14;;;;;;;7.60;4.88;;;;;;;22.21;37.41;99987.22;345433;28;2205;-69
2022/05/08 00:41:26;;;;;;;7.10;4.70;;;;;;;22.23;37.07;99987.94;346141;28;1351;-69
2022/05/08 00:41:38;;;;;;;7.65;4.80;;;;;;;22.22;37.00;99988.06;346166;28;1095;-69
2022/05/08 00:41:50;;;;;;;6.80;4.60;;;;;;;22.22;36.94;99988.91;346803;28;1094;-69
2022/05/08 00:42:03;;;;;;;6.68;4.32;;;;;;;22.23;37.79;99982.63;345465;28;1723;-70
2022/05/08 00:42:15;;;;;;;6.57;4.30;;;;;;;22.23;37.47;99980.00;346378;28;1825;-71
2022/05/08 00:42:28;;;;;;;5.53;4.45;;;;;;;22.24;37.46;99984.38;345719;28;1228;-70
2022/05/08 00:42:41;;;;;;;5.28;4.68;;;;;;;22.25;37.71;99987.84;346645;28;1058;-70
2022/05/08 00:42:53;;;;;;;6.10;4.80;;;;;;;22.22;37.90;99983.63;346211;28;1863;-70
2022/05/08 00:43:32;;;;;;;5.70;4.63;;;;;;;22.21;37.73;99981.91;346208;28;1733;-71
2022/05/08 00:43:44;;;;;;;6.55;5.05;;;;;;;22.23;37.90;99987.09;344760;28;1133;-69
2022/05/08 00:43:56;;;;;;;6.47;5.10;;;;;;;22.21;37.77;99981.91;344819;28;1892;-71
2022/05/08 00:44:08;;;;;;;7.13;4.85;;;;;;;22.22;37.71;99983.63;346034;28;1629;-70
2022/05/08 00:44:20;;;;;;;6.10;4.35;;;;;;;22.24;37.32;99986.19;346395;28;1077;-69
2022/05/08 00:44:32;;;;;;;6.70;4.40;;;;;;;22.21;37.63;99984.56;346497;28;1297;-69
2022/05/08 00:44:44;;;;;;;5.40;4.47;;;;;;;22.21;37.72;99981.91;345413;28;1408;-69
2022/05/08 00:44:56;;;;;;;5.35;4.38;;;;;;;22.21;37.84;99987.22;346006;28;1741;-71
2022/05/08 00:45:09;;;;;;;5.45;4.30;;;;;;;22.20;37.34;99985.53;345497;28;1899;-71
2022/05/08 00:45:21;;;;;;;5.40;4.30;;;;;;;22.22;37.72;99983.63;346103;28;1105;-69
2022/05/08 00:45:33;;;;;;;5.40;4.32;;;;;;;22.23;37.80;99979.16;344813;28;1324;-71
2022/05/08 00:45:45;;;;;;;5.38;4.38;;;;;;;22.23;37.64;99974.69;346619;28;2016;-71
2022/05/08 00:45:58;;;;;;;5.30;4.60;;;;;;;22.22;37.59;99980.97;346144;28;1749;-71
2022/05/08 00:46:12;;;;;;;5.40;4.68;;;;;;;22.24;37.42;99984.38;345205;28;1820;-69
2022/05/08 00:46:24;;;;;;;5.28;4.43;;;;;;;22.24;37.43;99980.88;344893;28;1073;-69
2022/05/08 00:46:36;;;;;;;4.93;4.32;;;;;;;22.25;37.74;99977.25;343290;28;1519;-69
2022/05/08 00:46:48;;;;;;;5.30;4.60;;;;;;;22.25;37.62;99983.41;343418;28;1075;-70
2022/05/08 00:47:00;;;;;;;5.80;4.60;;;;;;;22.25;37.67;99986.03;343282;28;1785;-69
2022/05/08 00:47:12;;;;;;;6.28;4.45;;;;;;;22.25;37.86;99980.75;344399;28;1800;-69
2022/05/08 00:47:25;;;;;;;5.45;4.18;;;;;;;22.26;37.71;99985.09;345429;28;1842;-71
2022/05/08 00:47:38;;;;;;;5.35;4.28;;;;;;;22.25;37.57;99980.75;344751;28;1328;-69
2022/05/08 00:47:50;;;;;;;5.75;4.50;;;;;;;22.24;37.30;99980.88;343613;28;1038;-69
2022/05/08 00:48:02;;;;;;;5.32;4.60;;;;;;;22.18;37.49;99982.16;342891;28;1786;-69
2022/05/08 00:48:14;;;;;;;5.47;4.65;;;;;;;22.23;37.57;99981.81;342555;28;1782;-70
2022/05/08 00:48:26;;;;;;;5.65;4.38;;;;;;;22.24;37.13;99981.72;342531;28;1708;-70
2022/05/08 00:48:39;;;;;;;5.72;4.13;;;;;;;22.26;37.00;99978.97;342479;28;1905;-71
2022/05/08 00:48:50;;;;;;;5.45;4.07;;;;;;;22.28;37.48;99977.03;344662;28;1641;-69
2022/05/08 00:49:03;;;;;;;6.05;4.30;;;;;;;22.30;37.65;99980.41;344751;28;1359;-69
2022/05/08 00:49:15;;;;;;;5.93;4.35;;;;;;;22.29;37.71;99978.72;344621;28;1055;-69
2022/05/08 00:49:27;;;;;;;6.10;4.50;;;;;;;22.28;37.58;99977.88;344104;28;1786;-70
2022/05/08 00:49:39;;;;;;;6.00;4.63;;;;;;;22.30;37.36;99981.25;344759;28;1065;-69
2022/05/08 00:49:51;;;;;;;6.10;4.70;;;;;;;22.31;37.05;99982.09;346165;28;1193;-69
2022/05/08 00:50:05;;;;;;;6.28;4.60;;;;;;;22.28;37.48;99977.88;345610;28;1760;-70
2022/05/08 00:50:17;;;;;;;5.95;4.40;;;;;;;22.28;37.48;99977.88;346350;28;1782;-70
2022/05/08 00:50:29;;;;;;;5.78;4.35;;;;;;;22.27;37.33;99980.63;346187;28;1314;-70
2022/05/08 00:50:41;;;;;;;5.45;4.47;;;;;;;22.27;37.67;99976.19;346175;28;1341;-69
2022/05/08 00:50:54;;;;;;;6.35;4.70;;;;;;;22.28;37.33;99977.88;346192;28;1168;-69
2022/05/08 00:51:11;;;;;;;6.72;4.75;;;;;;;22.27;37.98;99980.63;345716;28;2211;-70
2022/05/08 00:51:26;;;;;;;8.23;4.80;;;;;;;22.25;37.16;99978.09;346184;28;1081;-70
2022/05/08 00:51:39;;;;;;;7.72;4.70;;;;;;;22.24;37.15;99976.44;345722;28;2015;-69
2022/05/08 00:51:51;;;;;;;6.38;4.57;;;;;;;22.25;36.93;99978.09;345011;28;1209;-69
2022/05/08 00:52:04;;;;;;;6.40;4.50;;;;;;;22.27;36.96;99976.19;344680;28;2118;-70
2022/05/08 00:52:17;;;;;;;6.18;4.55;;;;;;;22.25;37.49;99983.41;345979;28;1648;-70
2022/05/08 00:52:29;;;;;;;6.75;4.80;;;;;;;22.24;37.42;99971.13;346022;28;1325;-69
2022/05/08 00:52:42;;;;;;;6.28;4.85;;;;;;;22.27;37.45;99981.47;346360;28;1180;-70
2022/05/08 00:52:54;;;;;;;6.68;4.97;;;;;;;22.27;37.33;99973.53;346186;28;1455;-69
2022/05/08 00:53:06;;;;;;;8.57;5.15;;;;;;;22.27;37.65;99978.00;345565;28;1797;-70
2022/05/08 00:53:19;;;;;;;7.65;5.00;;;;;;;22.26;37.26;99982.44;346010;28;1794;-70
2022/05/08 00:53:42;;;;;;;6.10;4.68;;;;;;;22.24;38.05;99973.78;345857;28;1325;-70
2022/05/08 00:53:57;;;;;;;5.55;4.30;;;;;;;22.21;37.45;99971.31;345951;28;1242;-69
2022/05/08 00:54:10;;;;;;;6.63;4.72;;;;;;;22.21;37.45;99973.97;345854;28;1800;-70
2022/05/08 00:54:22;;;;;;;6.57;4.95;;;;;;;22.21;37.27;99981.91;347420;28;1089;-71
2022/05/08 00:54:34;;;;;;;7.43;4.90;;;;;;;22.20;37.31;99969.66;345256;28;1558;-70
2022/05/08 00:54:46;;;;;;;7.40;4.85;;;;;;;22.20;37.37;99977.59;346704;28;2197;-70
2022/05/08 00:54:58;;;;;;;7.85;5.13;;;;;;;22.19;37.48;99969.75;346917;28;1737;-69
2022/05/08 00:55:12;;;;;;;8.90;5.60;;;;;;;22.18;37.60;99976.03;345836;28;1690;-70
2022/05/08 00:55:24;;;;;;;9.77;5.55;;;;;;;22.17;37.48;99971.69;346162;28;1166;-70
2022/05/08 00:55:36;;;;;;;7.47;5.25;;;;;;;22.17;37.55;99985.75;346009;28;2198;-69
2022/05/08 00:55:48;;;;;;;6.95;5.10;;;;;;;22.10;37.78;99980.09;346115;28;1127;-70
2022/05/08 00:56:03;;;;;;;7.82;5.07;;;;;;;22.11;38.11;99978.28;345497;28;1811;-71
2022/05/08 00:56:16;;;;;;;7.47;5.05;;;;;;;22.10;37.75;99971.31;345828;28;1885;-69
2022/05/08 00:56:29;;;;;;;5.68;4.95;;;;;;;22.10;37.78;99979.25;346424;28;1364;-69
2022/05/08 00:56:42;;;;;;;5.35;4.82;;;;;;;22.11;37.68;99978.28;346435;28;1770;-69
2022/05/08 00:56:55;;;;;;;5.88;5.10;;;;;;;22.07;38.35;99968.88;346450;28;1300;-69
2022/05/08 00:57:09;;;;;;;7.38;5.38;;;;;;;22.08;38.20;99982.00;345761;28;1976;-70
2022/05/08 00:57:21;;;;;;;7.45;5.00;;;;;;;22.10;38.08;99968.66;344765;28;1065;-69
2022/05/08 00:57:35;;;;;;;7.93;5.10;;;;;;;22.09;37.80;99972.25;345663;28;1296;-69
2022/05/08 00:57:48;;;;;;;7.78;5.10;;;;;;;22.08;37.76;99971.41;346165;28;1129;-70
2022/05/08 00:58:02;;;;;;;8.25;5.00;;;;;;;22.08;37.83;99966.13;345967;28;1351;-71
2022/05/08 00:58:15;;;;;;;8.20;5.13;;;;;;;22.08;38.12;99976.72;346062;28;1132;-69
2022/05/08 00:58:27;;;;;;;9.93;5.28;;;;;;;22.08;38.10;99970.59;346054;28;1320;-69
2022/05/08 00:58:41;;;;;;;9.82;5.35;;;;;;;22.08;38.09;99971.41;345419;28;1826;-71
2022/05/08 00:58:54;;;;;;;7.63;5.35;;;;;;;22.09;38.19;99972.25;345811;28;1894;-69
2022/05/08 00:59:06;;;;;;;8.25;5.40;;;;;;;22.08;37.73;99965.28;346435;28;1085;-70
2022/05/08 00:59:19;;;;;;;7.63;5.45;;;;;;;22.08;37.70;99973.22;345768;28;2137;-71
2022/05/08 00:59:31;;;;;;;6.93;5.40;;;;;;;22.09;37.30;99966.97;346281;28;1227;-69
2022/05/08 00:59:43;;;;;;;6.55;5.15;;;;;;;22.09;37.60;99972.25;346603;28;1072;-70
2022/05/08 00:59:57;;;;;;;7.40;5.10;;;;;;;22.10;37.29;99968.66;346781;28;1075;-70
2022/05/08 01:00:10;;;;;;;8.57;5.20;;;;;;;22.09;37.51;99972.25;346321;28;1856;-70
2022/05/08 01:00:22;;;;;;;8.18;5.07;;;;;;;22.08;37.90;99973.22;346258;28;1188;-70
2022/05/08 01:00:34;;;;;;;7.78;5.28;;;;;;;22.05;38.07;99971.63;346284;28;1311;-70
2022/05/08 01:00:46;;;;;;;7.47;5.32;;;;;;;22.10;37.50;99973.97;346902;28;1695;-70
2022/05/08 01:00:59;;;;;;;7.47;5.40;;;;;;;22.08;37.50;99975.88;347109;28;1969;-70
2022/05/08 01:01:11;;;;;;;6.60;5.13;;;;;;;22.15;37.42;99971.78;346311;28;1861;-70